createdAt,value
2022-07-30T00:01:45.033Z,3.72
2022-07-30T00:04:11.804Z,3.38
2022-07-30T00:06:40.002Z,3.53
2022-07-30T00:09:08.143Z,3.13
2022-07-30T00:11:35.118Z,3.50
2022-07-30T00:14:02.339Z,3.17
2022-07-30T00:16:29.243Z,3.50
2022-07-30T00:18:56.118Z,3.60
2022-07-30T00:21:38.420Z,3.13
2022-07-30T00:24:07.222Z,3.00
2022-07-30T00:26:34.450Z,3.20
2022-07-30T00:29:01.211Z,2.90
2022-07-30T00:31:29.122Z,3.00
2022-07-30T00:33:56.139Z,3.10
2022-07-30T00:36:23.462Z,2.95
2022-07-30T00:38:50.561Z,4.18
2022-07-30T00:41:17.940Z,3.53
2022-07-30T00:43:44.881Z,3.38
2022-07-30T00:46:12.159Z,3.83
2022-07-30T00:48:39.134Z,3.72
2022-07-30T00:51:06.212Z,3.33
2022-07-30T00:53:33.730Z,3.47
2022-07-30T00:56:00.634Z,3.22
2022-07-30T00:58:28.172Z,3.07
2022-07-30T01:00:55.020Z,3.33
2022-07-30T01:03:21.951Z,3.20
2022-07-30T01:05:50.066Z,3.63
2022-07-30T01:08:17.261Z,3.65
2022-07-30T01:10:44.684Z,3.70
2022-07-30T01:13:12.783Z,3.17
2022-07-30T01:15:39.893Z,3.15
2022-07-30T01:18:11.449Z,2.60
2022-07-30T01:20:50.051Z,2.83
2022-07-30T01:23:26.059Z,3.20
2022-07-30T01:26:04.717Z,3.42
2022-07-30T01:28:35.370Z,2.80
2022-07-30T01:31:04.161Z,2.80
2022-07-30T01:33:32.734Z,3.35
2022-07-30T01:36:01.801Z,3.80
2022-07-30T01:38:35.191Z,3.75
2022-07-30T01:41:03.910Z,3.78
2022-07-30T01:43:33.009Z,3.95
2022-07-30T01:46:02.182Z,4.07
2022-07-30T01:48:29.821Z,4.53
2022-07-30T01:51:00.585Z,3.92
2022-07-30T01:53:31.599Z,4.50
2022-07-30T01:56:01.914Z,4.70
2022-07-30T01:58:32.876Z,4.40
2022-07-30T02:01:08.214Z,5.07
2022-07-30T02:03:35.537Z,4.72
2022-07-30T02:06:09.411Z,5.00
2022-07-30T02:08:41.684Z,4.70
2022-07-30T02:11:10.578Z,5.40
2022-07-30T02:13:46.298Z,5.30
2022-07-30T02:16:25.458Z,4.90
2022-07-30T02:19:04.289Z,5.25
2022-07-30T02:21:36.568Z,5.70
2022-07-30T02:24:10.782Z,5.63
2022-07-30T02:26:39.186Z,4.90
2022-07-30T02:29:11.232Z,5.07
2022-07-30T02:31:41.078Z,4.95
2022-07-30T02:34:10.392Z,5.20
2022-07-30T02:36:37.761Z,4.75
2022-07-30T02:39:05.826Z,4.70
2022-07-30T02:41:33.388Z,5.30
2022-07-30T02:44:01.455Z,5.53
2022-07-30T02:46:30.193Z,5.15
2022-07-30T02:49:18.610Z,4.80
2022-07-30T02:51:48.207Z,5.00
2022-07-30T02:54:17.888Z,5.13
2022-07-30T02:56:47.669Z,4.55
2022-07-30T02:59:16.268Z,5.38
2022-07-30T03:01:44.278Z,4.85
2022-07-30T03:04:12.048Z,4.80
2022-07-30T03:06:39.589Z,5.05
2022-07-30T03:09:07.831Z,4.75
2022-07-30T03:11:36.479Z,5.15
2022-07-30T03:14:03.711Z,5.40
2022-07-30T03:16:34.323Z,4.70
2022-07-30T03:19:05.129Z,5.00
2022-07-30T03:21:34.786Z,4.50
2022-07-30T03:24:03.446Z,4.78
2022-07-30T03:26:31.431Z,4.75
2022-07-30T03:28:59.979Z,5.17
2022-07-30T03:31:28.515Z,4.78
2022-07-30T03:34:03.639Z,4.78
2022-07-30T03:36:34.293Z,5.05
2022-07-30T03:39:03.335Z,4.80
2022-07-30T03:41:31.536Z,5.20
2022-07-30T03:44:01.307Z,4.95
2022-07-30T03:46:29.792Z,4.88
2022-07-30T03:48:57.887Z,4.97
2022-07-30T03:51:26.362Z,4.78
2022-07-30T03:54:01.455Z,4.53
2022-07-30T03:56:50.160Z,4.40
2022-07-30T03:59:39.138Z,4.53
2022-07-30T04:02:07.376Z,4.13
2022-07-30T04:05:07.305Z,4.13
2022-07-30T04:07:34.196Z,4.27
2022-07-30T04:10:10.489Z,4.35
2022-07-30T04:12:56.647Z,4.32
2022-07-30T04:16:37.423Z,3.88
2022-07-30T04:18:13.246Z,4.93
2022-07-30T04:20:41.748Z,4.60
2022-07-30T04:23:10.673Z,4.20
2022-07-30T04:25:39.831Z,4.80
2022-07-30T04:28:07.030Z,4.60
2022-07-30T04:30:37.060Z,4.75
2022-07-30T04:33:04.895Z,4.67
2022-07-30T04:35:59.263Z,4.72
2022-07-30T04:38:31.816Z,4.20
2022-07-30T04:40:59.688Z,4.38
2022-07-30T04:43:29.852Z,4.28
2022-07-30T04:45:56.908Z,4.20
2022-07-30T04:48:26.736Z,3.85
2022-07-30T04:51:13.064Z,4.50
2022-07-30T04:53:42.696Z,4.18
2022-07-30T04:56:12.696Z,4.18
2022-07-30T04:58:41.457Z,4.40
2022-07-30T05:01:10.598Z,3.95
2022-07-30T05:03:40.342Z,4.18
2022-07-30T05:06:08.227Z,4.40
2022-07-30T05:08:38.754Z,4.15
2022-07-30T05:11:12.357Z,4.20
2022-07-30T05:13:46.149Z,4.20
2022-07-30T05:16:15.522Z,4.55
2022-07-30T05:18:43.092Z,3.90
2022-07-30T05:21:10.629Z,4.03
2022-07-30T05:23:50.533Z,4.10
2022-07-30T05:26:49.788Z,3.42
2022-07-30T05:29:19.996Z,3.90
2022-07-30T05:32:10.344Z,4.05
2022-07-30T05:34:37.956Z,3.90
2022-07-30T05:37:05.211Z,3.53
2022-07-30T05:39:32.207Z,3.80
2022-07-30T05:42:19.755Z,4.20
2022-07-30T05:44:49.025Z,3.58
2022-07-30T05:47:15.857Z,3.97
2022-07-30T05:49:44.474Z,4.43
2022-07-30T05:52:15.235Z,3.90
2022-07-30T05:54:42.454Z,4.20
2022-07-30T05:57:24.554Z,4.20
2022-07-30T05:59:51.655Z,3.70
2022-07-30T06:02:41.955Z,4.10
2022-07-30T06:05:40.603Z,4.65
2022-07-30T06:08:08.844Z,4.40
2022-07-30T06:10:35.848Z,4.35
2022-07-30T06:13:02.750Z,4.32
2022-07-30T06:15:29.647Z,3.80
2022-07-30T06:17:59.600Z,4.32
2022-07-30T06:20:52.004Z,3.90
2022-07-30T06:23:37.726Z,4.07
2022-07-30T06:26:16.019Z,3.95
2022-07-30T06:28:43.611Z,4.03
2022-07-30T06:31:26.027Z,4.10
2022-07-30T06:33:52.938Z,4.85
2022-07-30T06:36:20.264Z,4.90
2022-07-30T06:39:09.688Z,4.70
2022-07-30T06:41:55.090Z,4.50
2022-07-30T06:44:22.109Z,4.18
2022-07-30T06:47:08.363Z,4.75
2022-07-30T06:49:40.888Z,4.63
2022-07-30T06:52:10.017Z,4.70
2022-07-30T06:54:38.891Z,4.47
2022-07-30T06:57:12.722Z,4.00
2022-07-30T06:59:56.341Z,3.80
2022-07-30T07:02:44.615Z,4.30
2022-07-30T07:05:13.549Z,4.28
2022-07-30T07:07:52.420Z,4.00
2022-07-30T07:10:25.527Z,3.90
2022-07-30T07:13:11.146Z,3.85
2022-07-30T07:15:38.148Z,4.28
2022-07-30T07:18:09.209Z,3.67
2022-07-30T07:20:43.488Z,3.50
2022-07-30T07:23:12.336Z,3.67
2022-07-30T07:25:41.051Z,3.88
2022-07-30T07:28:11.809Z,3.85
2022-07-30T07:30:43.440Z,3.70
2022-07-30T07:33:18.004Z,3.67
2022-07-30T07:35:49.587Z,3.50
2022-07-30T07:38:24.989Z,3.60
2022-07-30T07:40:53.847Z,3.50
2022-07-30T07:43:21.268Z,3.80
2022-07-30T07:45:48.458Z,3.37
2022-07-30T07:48:15.627Z,3.58
2022-07-30T07:51:00.110Z,3.78
2022-07-30T07:53:30.106Z,3.40
2022-07-30T07:55:57.393Z,3.65
2022-07-30T07:58:26.593Z,3.40
2022-07-30T08:00:57.406Z,3.67
2022-07-30T08:03:40.510Z,3.42
2022-07-30T08:06:25.895Z,3.35
2022-07-30T08:09:27.723Z,3.60
2022-07-30T08:12:22.630Z,3.50
2022-07-30T08:15:11.758Z,3.90
2022-07-30T08:18:16.631Z,3.60
2022-07-30T08:21:15.831Z,4.22
2022-07-30T08:23:42.770Z,4.07
2022-07-30T08:26:10.069Z,3.60
2022-07-30T08:28:36.973Z,3.65
2022-07-30T08:31:06.654Z,3.97
2022-07-30T08:33:34.189Z,3.38
2022-07-30T08:36:03.893Z,4.00
2022-07-30T08:38:32.271Z,3.67
2022-07-30T08:40:59.356Z,3.80
2022-07-30T08:43:26.793Z,4.00
2022-07-30T08:45:57.195Z,3.90
2022-07-30T08:48:48.023Z,3.65
2022-07-30T08:51:19.907Z,3.97
2022-07-30T08:53:49.879Z,4.00
2022-07-30T08:56:17.364Z,4.10
2022-07-30T08:58:47.328Z,4.22
2022-07-30T09:01:16.703Z,4.28
2022-07-30T09:03:44.520Z,4.53
2022-07-30T09:06:11.825Z,4.38
2022-07-30T09:08:38.965Z,4.53
2022-07-30T09:11:05.926Z,4.25
2022-07-30T09:13:35.634Z,4.43
2022-07-30T09:16:03.478Z,4.67
2022-07-30T09:18:40.912Z,4.28
2022-07-30T09:21:20.899Z,4.20
2022-07-30T09:24:02.927Z,5.05
2022-07-30T09:27:05.091Z,4.90
2022-07-30T09:29:59.992Z,4.30
2022-07-30T09:32:56.134Z,4.72
2022-07-30T09:35:25.427Z,4.35
2022-07-30T09:38:11.698Z,4.22
2022-07-30T09:41:38.695Z,4.72
2022-07-30T09:44:23.078Z,4.60
2022-07-30T09:46:53.014Z,4.53
2022-07-30T09:49:30.552Z,4.80
2022-07-30T09:51:58.250Z,4.82
2022-07-30T09:54:51.482Z,5.18
2022-07-30T09:57:26.285Z,5.07
2022-07-30T10:00:15.377Z,5.30
2022-07-30T10:02:42.268Z,5.35
2022-07-30T10:05:21.696Z,5.38
2022-07-30T10:08:16.577Z,5.22
2022-07-30T10:10:50.732Z,5.40
2022-07-30T10:13:20.807Z,4.95
2022-07-30T10:15:49.739Z,4.97
2022-07-30T10:18:17.620Z,4.68
2022-07-30T10:20:45.737Z,4.90
2022-07-30T10:23:32.923Z,5.20
2022-07-30T10:26:18.720Z,4.90
2022-07-30T10:29:07.511Z,5.70
2022-07-30T10:31:48.073Z,5.18
2022-07-30T10:34:18.188Z,5.35
2022-07-30T10:36:56.234Z,5.50
2022-07-30T10:39:34.551Z,5.75
2022-07-30T10:42:02.419Z,5.55
2022-07-30T10:44:39.145Z,5.32
2022-07-30T10:47:14.240Z,5.32
2022-07-30T10:49:43.177Z,5.53
2022-07-30T10:52:12.241Z,5.97
2022-07-30T10:54:47.541Z,5.72
2022-07-30T10:57:22.579Z,6.22
2022-07-30T10:59:50.273Z,5.95
2022-07-30T11:02:18.501Z,5.90
2022-07-30T11:04:46.909Z,5.93
2022-07-30T11:07:23.529Z,5.90
2022-07-30T11:10:04.852Z,5.82
2022-07-30T11:12:44.032Z,5.60
2022-07-30T11:15:18.953Z,5.90
2022-07-30T11:17:58.319Z,5.65
2022-07-30T11:20:26.333Z,5.63
2022-07-30T11:22:53.972Z,5.25
2022-07-30T11:25:51.590Z,5.38
2022-07-30T11:28:38.240Z,6.00
2022-07-30T11:31:56.759Z,5.30
2022-07-30T11:34:26.922Z,4.88
2022-07-30T11:37:21.795Z,4.65
2022-07-30T11:39:55.551Z,4.82
2022-07-30T11:42:30.062Z,5.30
2022-07-30T11:45:16.780Z,5.40
2022-07-30T11:47:43.883Z,5.22
2022-07-30T11:50:30.870Z,5.32
2022-07-30T11:53:00.771Z,4.78
2022-07-30T11:55:38.901Z,4.97
2022-07-30T11:58:08.399Z,4.70
2022-07-30T12:00:35.180Z,5.18
2022-07-30T12:03:09.775Z,5.20
2022-07-30T12:05:36.635Z,5.20
2022-07-30T12:08:03.609Z,4.83
2022-07-30T12:10:31.790Z,4.82
2022-07-30T12:13:12.941Z,5.30
2022-07-30T12:15:47.816Z,5.03
2022-07-30T12:18:26.748Z,5.10
2022-07-30T12:20:59.677Z,4.63
2022-07-30T12:23:27.659Z,5.05
2022-07-30T12:25:54.827Z,4.85
2022-07-30T12:28:33.975Z,4.60
2022-07-30T12:31:04.949Z,4.20
2022-07-30T12:33:31.847Z,4.47
2022-07-30T12:36:00.656Z,4.70
2022-07-30T12:38:29.066Z,4.70
2022-07-30T12:41:02.826Z,5.60
2022-07-30T12:44:02.263Z,5.95
2022-07-30T12:46:29.106Z,6.20
2022-07-30T12:49:22.020Z,4.18
2022-07-30T12:51:52.135Z,2.70
2022-07-30T12:54:20.008Z,1.58
2022-07-30T12:57:01.750Z,1.80
2022-07-30T12:59:31.084Z,1.40
2022-07-30T13:02:00.351Z,1.67
2022-07-30T13:04:28.361Z,1.95
2022-07-30T13:07:11.229Z,2.00
2022-07-30T13:09:40.020Z,2.15
2022-07-30T13:12:07.647Z,2.23
2022-07-30T13:14:34.662Z,2.05
2022-07-30T13:17:04.226Z,1.95
2022-07-30T13:19:31.498Z,2.20
2022-07-30T13:21:58.255Z,1.80
2022-07-30T13:24:25.123Z,2.33
2022-07-30T13:26:51.851Z,2.40
2022-07-30T13:29:18.753Z,2.13
2022-07-30T13:31:45.490Z,2.45
2022-07-30T13:34:12.715Z,2.55
2022-07-30T13:36:39.869Z,2.53
2022-07-30T13:39:06.782Z,2.83
2022-07-30T13:41:36.147Z,3.08
2022-07-30T13:44:04.239Z,3.47
2022-07-30T13:46:31.140Z,3.95
2022-07-30T13:48:58.078Z,4.13
2022-07-30T13:51:25.226Z,4.10
2022-07-30T13:53:52.317Z,3.85
2022-07-30T13:56:19.810Z,3.97
2022-07-30T13:58:47.365Z,3.72
2022-07-30T14:01:17.682Z,3.00
2022-07-30T14:03:49.889Z,3.60
2022-07-30T14:06:18.420Z,3.60
2022-07-30T14:08:45.309Z,3.90
2022-07-30T14:11:12.158Z,4.07
2022-07-30T14:13:39.005Z,3.80
2022-07-30T14:16:22.704Z,3.90
2022-07-30T14:18:53.619Z,4.00
2022-07-30T14:21:20.504Z,3.72
2022-07-30T14:23:47.879Z,3.65
2022-07-30T14:26:15.136Z,3.70
2022-07-30T14:28:41.949Z,3.70
2022-07-30T14:31:08.738Z,4.00
2022-07-30T14:33:35.704Z,3.40
2022-07-30T14:36:02.560Z,3.50
2022-07-30T14:38:29.341Z,3.60
2022-07-30T14:40:56.195Z,3.38
2022-07-30T14:43:24.880Z,3.50
2022-07-30T14:45:53.384Z,3.55
2022-07-30T14:48:20.575Z,3.47
2022-07-30T14:51:12.015Z,3.90
2022-07-30T14:53:35.135Z,3.67
2022-07-30T14:56:02.039Z,3.75
2022-07-30T14:58:28.939Z,4.15
2022-07-30T15:00:55.939Z,3.60
2022-07-30T15:03:23.315Z,4.30
2022-07-30T15:05:52.739Z,3.83
2022-07-30T15:08:19.561Z,3.70
2022-07-30T15:10:46.398Z,3.95
2022-07-30T15:13:13.355Z,3.35
2022-07-30T15:15:42.066Z,3.63
2022-07-30T15:18:11.454Z,3.70
2022-07-30T15:20:38.244Z,3.38
2022-07-30T15:23:05.381Z,3.15
2022-07-30T15:25:32.545Z,3.80
2022-07-30T15:27:59.432Z,3.53
2022-07-30T15:30:26.268Z,3.42
2022-07-30T15:32:54.415Z,3.90
2022-07-30T15:35:21.421Z,3.42
2022-07-30T15:37:48.475Z,4.15
2022-07-30T15:40:15.333Z,3.23
2022-07-30T15:42:42.755Z,3.45
2022-07-30T15:45:18.328Z,3.15
2022-07-30T15:47:45.935Z,2.50
2022-07-30T15:50:13.348Z,3.08
2022-07-30T15:52:40.163Z,3.03
2022-07-30T15:55:07.519Z,2.83
2022-07-30T15:57:34.367Z,3.10
2022-07-30T16:00:01.182Z,3.13
2022-07-30T16:02:28.072Z,3.15
2022-07-30T16:04:55.388Z,3.20
2022-07-30T16:07:22.946Z,3.20
2022-07-30T16:09:50.230Z,3.20
2022-07-30T16:12:18.200Z,2.92
2022-07-30T16:14:45.354Z,3.00
2022-07-30T16:17:14.273Z,2.97
2022-07-30T16:19:44.887Z,2.88
2022-07-30T16:22:14.961Z,3.00
2022-07-30T16:24:49.144Z,3.13
2022-07-30T16:27:18.496Z,2.83
2022-07-30T16:29:45.523Z,2.97
2022-07-30T16:32:12.418Z,2.70
2022-07-30T16:34:39.655Z,2.95
2022-07-30T16:37:07.187Z,2.90
2022-07-30T16:39:35.040Z,2.80
2022-07-30T16:42:03.248Z,3.07
2022-07-30T16:44:34.111Z,3.10
2022-07-30T16:47:01.543Z,2.60
2022-07-30T16:49:30.359Z,2.85
2022-07-30T16:51:58.374Z,2.88
2022-07-30T16:54:25.781Z,2.73
2022-07-30T16:56:53.991Z,2.83
2022-07-30T16:59:21.882Z,3.10
2022-07-30T17:01:49.216Z,3.20
2022-07-30T17:04:16.159Z,3.42
2022-07-30T17:06:44.401Z,3.00
2022-07-30T17:09:15.820Z,3.10
2022-07-30T17:11:47.669Z,2.75
2022-07-30T17:14:22.251Z,3.03
2022-07-30T17:16:49.291Z,3.05
2022-07-30T17:19:17.067Z,3.20
2022-07-30T17:21:44.000Z,3.20
2022-07-30T17:24:11.889Z,3.17
2022-07-30T17:26:42.820Z,2.97
2022-07-30T17:29:14.437Z,3.92
2022-07-30T17:31:44.198Z,3.50
2022-07-30T17:34:13.917Z,3.08
2022-07-30T17:36:47.000Z,3.40
2022-07-30T17:40:28.542Z,3.17
2022-07-30T17:42:11.590Z,3.20
2022-07-30T17:44:40.280Z,3.30
2022-07-30T17:47:10.978Z,3.28
2022-07-30T17:49:40.864Z,3.33
2022-07-30T17:52:07.707Z,3.50
2022-07-30T17:54:34.617Z,3.65
2022-07-30T17:57:01.445Z,3.47
2022-07-30T17:59:28.265Z,3.47
2022-07-30T18:01:55.107Z,3.72
2022-07-30T18:04:21.998Z,3.50
2022-07-30T18:06:50.793Z,3.60
2022-07-30T18:09:17.602Z,3.57
2022-07-30T18:11:45.154Z,3.28
2022-07-30T18:14:11.938Z,3.83
2022-07-30T18:16:39.020Z,3.33
2022-07-30T18:19:05.930Z,3.40
2022-07-30T18:21:33.116Z,3.80
2022-07-30T18:23:59.975Z,3.25
2022-07-30T18:26:27.196Z,4.15
2022-07-30T18:28:54.081Z,3.42
2022-07-30T18:31:20.961Z,3.80
2022-07-30T18:33:49.314Z,3.57
2022-07-30T18:36:16.135Z,3.90
2022-07-30T18:38:43.133Z,3.70
2022-07-30T18:41:09.908Z,3.47
2022-07-30T18:43:48.377Z,3.47
2022-07-30T18:46:16.101Z,3.20
2022-07-30T18:48:43.115Z,3.55
2022-07-30T18:51:13.803Z,3.90
2022-07-30T18:53:54.220Z,3.50
2022-07-30T18:56:22.624Z,3.85
2022-07-30T18:58:49.479Z,4.17
2022-07-30T19:01:18.413Z,4.03
2022-07-30T19:03:46.617Z,3.45
2022-07-30T19:06:14.845Z,3.78
2022-07-30T19:08:41.682Z,3.50
2022-07-30T19:11:08.583Z,4.00
2022-07-30T19:13:35.474Z,4.45
2022-07-30T19:16:02.381Z,3.83
2022-07-30T19:18:29.209Z,3.75
2022-07-30T19:20:56.049Z,3.72
2022-07-30T19:23:24.048Z,3.70
2022-07-30T19:25:50.928Z,3.55
2022-07-30T19:28:18.155Z,3.30
2022-07-30T19:30:45.060Z,3.17
2022-07-30T19:33:15.541Z,3.35
2022-07-30T19:35:43.760Z,3.20
2022-07-30T19:38:14.263Z,3.33
2022-07-30T19:40:48.436Z,3.30
2022-07-30T19:43:16.243Z,3.35
2022-07-30T19:45:47.537Z,3.63
2022-07-30T19:48:28.327Z,3.20
2022-07-30T19:50:58.385Z,2.92
2022-07-30T19:53:26.560Z,3.10
2022-07-30T19:55:54.876Z,2.92
2022-07-30T19:58:22.232Z,3.00
2022-07-30T20:00:51.865Z,3.00
2022-07-30T20:03:25.463Z,3.03
2022-07-30T20:05:54.856Z,2.88
2022-07-30T20:15:33.899Z,2.30
2022-07-30T20:18:01.817Z,2.53
2022-07-30T20:20:30.170Z,2.92
2022-07-30T20:22:57.112Z,2.55
2022-07-30T20:25:25.250Z,3.08
2022-07-30T20:27:52.205Z,3.07
2022-07-30T20:30:25.096Z,3.17
2022-07-30T20:32:52.556Z,2.83
2022-07-30T20:35:21.497Z,2.70
2022-07-30T20:37:55.548Z,2.70
2022-07-30T20:40:27.062Z,3.10
2022-07-30T20:42:54.771Z,3.20
2022-07-30T20:45:24.886Z,3.30
2022-07-30T20:47:55.982Z,2.90
2022-07-30T20:50:30.541Z,2.78
2022-07-30T20:52:58.579Z,2.70
2022-07-30T20:55:25.458Z,3.17
2022-07-30T20:58:00.439Z,3.15
2022-07-30T21:00:41.635Z,2.80
2022-07-30T21:03:13.698Z,3.10
2022-07-30T21:05:43.137Z,2.90
2022-07-30T21:08:12.735Z,3.30
2022-07-30T21:10:40.985Z,3.20
2022-07-30T21:13:11.688Z,3.50
2022-07-30T21:15:45.520Z,3.20
2022-07-30T21:18:25.717Z,3.40
2022-07-30T21:20:54.498Z,3.05
2022-07-30T21:23:24.786Z,3.25
2022-07-30T21:26:02.149Z,3.78
2022-07-30T21:28:35.207Z,3.30
2022-07-30T21:31:03.823Z,3.47
2022-07-30T21:33:33.759Z,3.17
2022-07-30T21:36:01.485Z,3.25
2022-07-30T21:38:28.790Z,3.03
2022-07-30T21:40:57.986Z,3.70
2022-07-30T21:43:30.070Z,3.40
2022-07-30T21:45:58.974Z,3.55
2022-07-30T21:48:26.863Z,3.33
2022-07-30T21:50:57.012Z,3.60
2022-07-30T21:53:29.652Z,3.50
2022-07-30T21:56:14.511Z,3.70
2022-07-30T21:58:42.702Z,3.30
2022-07-30T22:01:17.844Z,3.20
2022-07-30T22:04:03.129Z,4.00
2022-07-30T22:06:39.918Z,3.67
2022-07-30T22:09:18.654Z,3.90
2022-07-30T22:12:01.411Z,3.50
2022-07-30T22:14:29.355Z,3.40
2022-07-30T22:16:56.751Z,3.70
2022-07-30T22:19:23.959Z,3.55
2022-07-30T22:21:53.129Z,3.70
2022-07-30T22:24:30.329Z,3.55
2022-07-30T22:27:11.585Z,3.55
2022-07-30T22:29:43.351Z,3.45
2022-07-30T22:32:11.868Z,3.83
2022-07-30T22:34:38.781Z,3.60
2022-07-30T22:37:12.463Z,4.22
2022-07-30T22:39:50.714Z,4.28
2022-07-30T22:42:18.698Z,4.15
2022-07-30T22:44:48.156Z,4.13
2022-07-30T22:47:21.059Z,3.60
2022-07-30T22:50:04.273Z,4.25
2022-07-30T22:52:38.095Z,4.05
2022-07-30T22:55:10.223Z,3.95
2022-07-30T22:57:53.295Z,4.43
2022-07-30T23:00:28.027Z,4.47
2022-07-30T23:02:56.166Z,4.20
2022-07-30T23:05:23.546Z,4.75
2022-07-30T23:07:50.902Z,4.20
2022-07-30T23:10:20.289Z,4.32
2022-07-30T23:12:51.253Z,4.83
2022-07-30T23:15:19.943Z,4.35
2022-07-30T23:17:47.657Z,4.50
2022-07-30T23:20:22.885Z,3.85
2022-07-30T23:22:50.407Z,4.45
2022-07-30T23:25:17.482Z,4.63
2022-07-30T23:27:46.740Z,4.07
2022-07-30T23:30:16.735Z,4.20
2022-07-30T23:32:43.668Z,4.05
2022-07-30T23:35:10.663Z,4.45
2022-07-30T23:37:48.582Z,4.43
2022-07-30T23:40:17.500Z,4.22
2022-07-30T23:42:44.510Z,4.15
2022-07-30T23:45:11.353Z,4.20
2022-07-30T23:48:01.581Z,4.20
2022-07-30T23:50:26.099Z,4.33
2022-07-30T23:52:53.016Z,4.05
2022-07-30T23:55:19.889Z,4.20
2022-07-30T23:57:46.830Z,4.20
